sensor_id;sensor_type;location;lat;lon;timestamp;temperature;humidity
64869;DHT22;51349;52.424;10.840;2022-08-21T00:00:31;17.30;99.90
64869;DHT22;51349;52.424;10.840;2022-08-21T00:05:36;17.10;99.90
64869;DHT22;51349;52.424;10.840;2022-08-21T00:10:40;16.90;99.90
64869;DHT22;51349;52.424;10.840;2022-08-21T00:15:41;16.70;99.90
64869;DHT22;51349;52.424;10.840;2022-08-21T00:20:44;16.40;99.90
64869;DHT22;51349;52.424;10.840;2022-08-21T00:25:45;16.50;99.90
64869;DHT22;51349;52.424;10.840;2022-08-21T00:30:46;16.40;99.90
64869;DHT22;51349;52.424;10.840;2022-08-21T00:35:46;16.30;99.90
64869;DHT22;51349;52.424;10.840;2022-08-21T00:40:54;16.20;99.90
64869;DHT22;51349;52.424;10.840;2022-08-21T00:45:56;16.20;99.90
64869;DHT22;51349;52.424;10.840;2022-08-21T00:56:05;15.90;99.90
64869;DHT22;51349;52.424;10.840;2022-08-21T01:01:08;15.90;99.90
64869;DHT22;51349;52.424;10.840;2022-08-21T01:06:09;15.80;99.90
64869;DHT22;51349;52.424;10.840;2022-08-21T01:11:10;15.70;99.90
64869;DHT22;51349;52.424;10.840;2022-08-21T01:16:11;15.60;99.90
64869;DHT22;51349;52.424;10.840;2022-08-21T01:21:19;15.50;99.90
64869;DHT22;51349;52.424;10.840;2022-08-21T01:26:30;15.30;99.90
64869;DHT22;51349;52.424;10.840;2022-08-21T01:31:32;15.20;99.90
64869;DHT22;51349;52.424;10.840;2022-08-21T01:36:33;15.10;99.90
64869;DHT22;51349;52.424;10.840;2022-08-21T01:41:34;15.00;99.90
64869;DHT22;51349;52.424;10.840;2022-08-21T01:46:35;14.90;99.90
64869;DHT22;51349;52.424;10.840;2022-08-21T01:51:35;14.80;99.90
64869;DHT22;51349;52.424;10.840;2022-08-21T01:56:39;14.50;99.90
64869;DHT22;51349;52.424;10.840;2022-08-21T02:01:40;14.40;99.90
64869;DHT22;51349;52.424;10.840;2022-08-21T02:06:41;14.30;99.90
64869;DHT22;51349;52.424;10.840;2022-08-21T02:11:43;14.40;99.90
64869;DHT22;51349;52.424;10.840;2022-08-21T02:16:44;14.20;99.90
64869;DHT22;51349;52.424;10.840;2022-08-21T02:21:45;14.20;99.90
64869;DHT22;51349;52.424;10.840;2022-08-21T02:26:46;14.20;99.90
64869;DHT22;51349;52.424;10.840;2022-08-21T02:31:47;14.10;99.90
64869;DHT22;51349;52.424;10.840;2022-08-21T02:36:47;14.00;99.90
64869;DHT22;51349;52.424;10.840;2022-08-21T02:41:48;14.00;99.90
64869;DHT22;51349;52.424;10.840;2022-08-21T02:46:49;13.80;99.90
64869;DHT22;51349;52.424;10.840;2022-08-21T02:51:49;13.60;99.90
64869;DHT22;51349;52.424;10.840;2022-08-21T02:56:51;13.70;99.90
64869;DHT22;51349;52.424;10.840;2022-08-21T03:01:51;13.70;99.90
64869;DHT22;51349;52.424;10.840;2022-08-21T03:06:52;13.60;99.90
64869;DHT22;51349;52.424;10.840;2022-08-21T03:11:53;13.60;99.90
64869;DHT22;51349;52.424;10.840;2022-08-21T03:16:54;13.50;99.90
64869;DHT22;51349;52.424;10.840;2022-08-21T03:21:54;13.40;99.90
64869;DHT22;51349;52.424;10.840;2022-08-21T03:26:55;13.40;99.90
64869;DHT22;51349;52.424;10.840;2022-08-21T03:31:56;13.30;99.90
64869;DHT22;51349;52.424;10.840;2022-08-21T03:36:57;13.20;99.90
64869;DHT22;51349;52.424;10.840;2022-08-21T03:41:57;13.20;99.90
64869;DHT22;51349;52.424;10.840;2022-08-21T03:46:58;12.90;99.90
64869;DHT22;51349;52.424;10.840;2022-08-21T03:51:59;13.00;99.90
64869;DHT22;51349;52.424;10.840;2022-08-21T03:57:00;13.00;99.90
64869;DHT22;51349;52.424;10.840;2022-08-21T04:02:04;12.90;99.90
64869;DHT22;51349;52.424;10.840;2022-08-21T04:07:05;12.80;99.90
64869;DHT22;51349;52.424;10.840;2022-08-21T04:12:06;12.80;99.90
64869;DHT22;51349;52.424;10.840;2022-08-21T04:17:07;12.80;99.90
64869;DHT22;51349;52.424;10.840;2022-08-21T04:22:08;12.70;99.90
64869;DHT22;51349;52.424;10.840;2022-08-21T04:27:08;12.60;99.90
64869;DHT22;51349;52.424;10.840;2022-08-21T04:32:09;12.60;99.90
64869;DHT22;51349;52.424;10.840;2022-08-21T04:37:10;12.50;99.90
64869;DHT22;51349;52.424;10.840;2022-08-21T04:42:10;12.50;99.90
64869;DHT22;51349;52.424;10.840;2022-08-21T04:47:11;12.50;99.90
64869;DHT22;51349;52.424;10.840;2022-08-21T04:52:14;12.50;99.90
64869;DHT22;51349;52.424;10.840;2022-08-21T04:57:16;12.40;99.90
64869;DHT22;51349;52.424;10.840;2022-08-21T05:02:17;12.50;99.90
64869;DHT22;51349;52.424;10.840;2022-08-21T05:07:24;12.50;99.90
64869;DHT22;51349;52.424;10.840;2022-08-21T05:12:26;12.60;99.90
64869;DHT22;51349;52.424;10.840;2022-08-21T05:17:27;12.70;99.90
64869;DHT22;51349;52.424;10.840;2022-08-21T05:22:28;12.80;99.90
64869;DHT22;51349;52.424;10.840;2022-08-21T05:27:28;12.90;99.90
64869;DHT22;51349;52.424;10.840;2022-08-21T05:32:30;13.00;99.90
64869;DHT22;51349;52.424;10.840;2022-08-21T05:37:30;13.20;99.90
64869;DHT22;51349;52.424;10.840;2022-08-21T05:42:31;13.40;99.90
64869;DHT22;51349;52.424;10.840;2022-08-21T05:47:32;13.50;99.90
64869;DHT22;51349;52.424;10.840;2022-08-21T05:52:33;13.70;99.90
64869;DHT22;51349;52.424;10.840;2022-08-21T05:57:33;13.90;99.90
64869;DHT22;51349;52.424;10.840;2022-08-21T06:02:34;14.10;99.90
64869;DHT22;51349;52.424;10.840;2022-08-21T06:07:35;14.50;99.90
64869;DHT22;51349;52.424;10.840;2022-08-21T06:12:38;14.80;99.90
64869;DHT22;51349;52.424;10.840;2022-08-21T06:17:42;15.20;99.90
64869;DHT22;51349;52.424;10.840;2022-08-21T06:22:42;15.60;99.90
64869;DHT22;51349;52.424;10.840;2022-08-21T06:27:43;15.90;99.90
64869;DHT22;51349;52.424;10.840;2022-08-21T06:32:44;16.20;99.90
64869;DHT22;51349;52.424;10.840;2022-08-21T06:37:45;16.50;99.90
64869;DHT22;51349;52.424;10.840;2022-08-21T06:42:46;16.90;99.90
64869;DHT22;51349;52.424;10.840;2022-08-21T06:47:47;17.10;99.90
64869;DHT22;51349;52.424;10.840;2022-08-21T06:52:48;17.30;99.90
64869;DHT22;51349;52.424;10.840;2022-08-21T06:57:49;17.50;99.90
64869;DHT22;51349;52.424;10.840;2022-08-21T07:02:49;17.80;99.90
64869;DHT22;51349;52.424;10.840;2022-08-21T07:07:50;18.20;99.90
64869;DHT22;51349;52.424;10.840;2022-08-21T07:12:51;18.60;99.90
64869;DHT22;51349;52.424;10.840;2022-08-21T07:17:54;18.80;99.90
64869;DHT22;51349;52.424;10.840;2022-08-21T07:22:59;18.90;99.90
64869;DHT22;51349;52.424;10.840;2022-08-21T07:28:01;19.00;99.90
64869;DHT22;51349;52.424;10.840;2022-08-21T07:33:02;19.20;99.90
64869;DHT22;51349;52.424;10.840;2022-08-21T07:38:03;19.50;99.90
64869;DHT22;51349;52.424;10.840;2022-08-21T07:43:04;19.80;99.90
64869;DHT22;51349;52.424;10.840;2022-08-21T07:48:05;20.00;99.90
64869;DHT22;51349;52.424;10.840;2022-08-21T07:53:05;20.30;99.90
64869;DHT22;51349;52.424;10.840;2022-08-21T07:58:07;20.70;97.90
64869;DHT22;51349;52.424;10.840;2022-08-21T08:03:08;21.10;98.80
64869;DHT22;51349;52.424;10.840;2022-08-21T08:08:09;21.60;96.80
64869;DHT22;51349;52.424;10.840;2022-08-21T08:13:09;21.80;96.40
64869;DHT22;51349;52.424;10.840;2022-08-21T08:18:10;22.00;95.50
64869;DHT22;51349;52.424;10.840;2022-08-21T08:23:12;22.40;94.20
64869;DHT22;51349;52.424;10.840;2022-08-21T08:28:13;22.60;94.50
64869;DHT22;51349;52.424;10.840;2022-08-21T08:33:14;22.80;96.20
64869;DHT22;51349;52.424;10.840;2022-08-21T08:38:17;23.50;94.00
64869;DHT22;51349;52.424;10.840;2022-08-21T08:43:19;24.00;94.90
64869;DHT22;51349;52.424;10.840;2022-08-21T08:48:41;24.30;93.10
64869;DHT22;51349;52.424;10.840;2022-08-21T08:53:57;24.30;93.40
64869;DHT22;51349;52.424;10.840;2022-08-21T08:59:18;24.00;92.70
64869;DHT22;51349;52.424;10.840;2022-08-21T09:04:25;23.70;93.40
64869;DHT22;51349;52.424;10.840;2022-08-21T09:25:27;23.40;93.60
64869;DHT22;51349;52.424;10.840;2022-08-21T09:30:31;23.60;94.20
64869;DHT22;51349;52.424;10.840;2022-08-21T09:35:33;23.60;92.80
64869;DHT22;51349;52.424;10.840;2022-08-21T09:45:40;23.60;93.90
64869;DHT22;51349;52.424;10.840;2022-08-21T09:50:43;24.80;93.60
64869;DHT22;51349;52.424;10.840;2022-08-21T09:56:02;26.60;95.90
64869;DHT22;51349;52.424;10.840;2022-08-21T10:01:24;25.40;92.20
64869;DHT22;51349;52.424;10.840;2022-08-21T10:06:27;26.00;94.00
64869;DHT22;51349;52.424;10.840;2022-08-21T10:11:28;26.20;92.90
64869;DHT22;51349;52.424;10.840;2022-08-21T10:22:37;26.70;94.80
64869;DHT22;51349;52.424;10.840;2022-08-21T10:37:58;25.00;92.40
64869;DHT22;51349;52.424;10.840;2022-08-21T10:48:37;24.90;92.80
64869;DHT22;51349;52.424;10.840;2022-08-21T11:04:15;25.00;92.70
64869;DHT22;51349;52.424;10.840;2022-08-21T11:09:21;24.80;92.80
64869;DHT22;51349;52.424;10.840;2022-08-21T11:14:34;25.50;91.90
64869;DHT22;51349;52.424;10.840;2022-08-21T11:24:42;25.20;91.30
64869;DHT22;51349;52.424;10.840;2022-08-21T11:29:50;25.80;90.40
64869;DHT22;51349;52.424;10.840;2022-08-21T11:35:04;25.30;90.20
64869;DHT22;51349;52.424;10.840;2022-08-21T11:45:48;25.80;90.20
64869;DHT22;51349;52.424;10.840;2022-08-21T11:50:50;25.40;91.00
64869;DHT22;51349;52.424;10.840;2022-08-21T11:55:53;25.20;85.00
64869;DHT22;51349;52.424;10.840;2022-08-21T12:01:16;24.90;83.40
64869;DHT22;51349;52.424;10.840;2022-08-21T12:06:29;25.40;85.00
64869;DHT22;51349;52.424;10.840;2022-08-21T12:11:30;26.10;84.40
64869;DHT22;51349;52.424;10.840;2022-08-21T12:26:59;25.70;84.50
64869;DHT22;51349;52.424;10.840;2022-08-21T12:32:02;25.20;82.60
64869;DHT22;51349;52.424;10.840;2022-08-21T12:37:13;25.50;81.60
64869;DHT22;51349;52.424;10.840;2022-08-21T12:42:36;26.10;81.50
64869;DHT22;51349;52.424;10.840;2022-08-21T12:48:06;26.30;81.20
64869;DHT22;51349;52.424;10.840;2022-08-21T12:53:47;26.20;77.70
64869;DHT22;51349;52.424;10.840;2022-08-21T12:58:55;26.40;83.50
64869;DHT22;51349;52.424;10.840;2022-08-21T13:04:01;26.20;80.70
64869;DHT22;51349;52.424;10.840;2022-08-21T13:09:06;26.60;80.40
64869;DHT22;51349;52.424;10.840;2022-08-21T13:19:30;26.20;77.10
64869;DHT22;51349;52.424;10.840;2022-08-21T13:24:34;26.10;73.10
64869;DHT22;51349;52.424;10.840;2022-08-21T13:29:37;25.90;71.60
64869;DHT22;51349;52.424;10.840;2022-08-21T13:34:39;26.30;71.80
64869;DHT22;51349;52.424;10.840;2022-08-21T13:39:40;26.30;73.20
64869;DHT22;51349;52.424;10.840;2022-08-21T13:44:44;26.40;75.00
64869;DHT22;51349;52.424;10.840;2022-08-21T13:49:46;26.60;72.10
64869;DHT22;51349;52.424;10.840;2022-08-21T13:54:59;26.40;70.60
64869;DHT22;51349;52.424;10.840;2022-08-21T14:00:17;26.70;72.90
64869;DHT22;51349;52.424;10.840;2022-08-21T14:05:24;26.40;71.70
64869;DHT22;51349;52.424;10.840;2022-08-21T14:10:25;26.30;70.90
64869;DHT22;51349;52.424;10.840;2022-08-21T14:15:31;26.40;72.10
64869;DHT22;51349;52.424;10.840;2022-08-21T14:20:34;26.50;73.40
64869;DHT22;51349;52.424;10.840;2022-08-21T14:25:43;25.90;73.00
64869;DHT22;51349;52.424;10.840;2022-08-21T14:30:45;26.30;78.00
64869;DHT22;51349;52.424;10.840;2022-08-21T14:35:47;26.30;73.10
64869;DHT22;51349;52.424;10.840;2022-08-21T14:41:13;26.50;73.00
64869;DHT22;51349;52.424;10.840;2022-08-21T14:46:21;27.00;80.80
64869;DHT22;51349;52.424;10.840;2022-08-21T14:51:24;27.20;73.10
64869;DHT22;51349;52.424;10.840;2022-08-21T14:56:25;26.60;72.40
64869;DHT22;51349;52.424;10.840;2022-08-21T15:01:26;26.70;68.60
64869;DHT22;51349;52.424;10.840;2022-08-21T15:06:27;26.30;77.30
64869;DHT22;51349;52.424;10.840;2022-08-21T15:11:33;26.30;77.40
64869;DHT22;51349;52.424;10.840;2022-08-21T15:16:35;26.10;76.50
64869;DHT22;51349;52.424;10.840;2022-08-21T15:21:35;26.00;73.90
64869;DHT22;51349;52.424;10.840;2022-08-21T15:26:36;26.00;71.70
64869;DHT22;51349;52.424;10.840;2022-08-21T15:31:56;26.00;76.50
64869;DHT22;51349;52.424;10.840;2022-08-21T15:36:57;26.30;76.50
64869;DHT22;51349;52.424;10.840;2022-08-21T15:41:58;26.50;73.20
64869;DHT22;51349;52.424;10.840;2022-08-21T15:46:59;26.70;74.50
64869;DHT22;51349;52.424;10.840;2022-08-21T15:52:00;27.10;68.70
64869;DHT22;51349;52.424;10.840;2022-08-21T15:57:01;27.20;73.40
64869;DHT22;51349;52.424;10.840;2022-08-21T16:02:02;27.50;70.60
64869;DHT22;51349;52.424;10.840;2022-08-21T16:07:03;27.50;71.40
64869;DHT22;51349;52.424;10.840;2022-08-21T16:12:05;27.20;77.20
64869;DHT22;51349;52.424;10.840;2022-08-21T16:17:07;28.00;78.60
64869;DHT22;51349;52.424;10.840;2022-08-21T16:22:08;27.40;73.70
64869;DHT22;51349;52.424;10.840;2022-08-21T16:27:09;28.00;68.80
64869;DHT22;51349;52.424;10.840;2022-08-21T16:32:10;27.70;67.60
64869;DHT22;51349;52.424;10.840;2022-08-21T16:37:10;28.00;71.80
64869;DHT22;51349;52.424;10.840;2022-08-21T16:42:22;27.10;71.30
64869;DHT22;51349;52.424;10.840;2022-08-21T16:47:23;26.80;71.00
64869;DHT22;51349;52.424;10.840;2022-08-21T16:52:24;26.80;74.10
64869;DHT22;51349;52.424;10.840;2022-08-21T16:57:25;26.80;74.80
64869;DHT22;51349;52.424;10.840;2022-08-21T17:02:31;27.10;73.50
64869;DHT22;51349;52.424;10.840;2022-08-21T17:07:33;27.20;73.50
64869;DHT22;51349;52.424;10.840;2022-08-21T17:12:34;27.10;73.80
64869;DHT22;51349;52.424;10.840;2022-08-21T17:17:35;27.00;74.30
64869;DHT22;51349;52.424;10.840;2022-08-21T17:22:36;26.60;70.60
64869;DHT22;51349;52.424;10.840;2022-08-21T17:27:38;26.40;68.30
64869;DHT22;51349;52.424;10.840;2022-08-21T17:32:41;26.20;69.60
64869;DHT22;51349;52.424;10.840;2022-08-21T17:37:42;26.20;73.00
64869;DHT22;51349;52.424;10.840;2022-08-21T17:42:45;26.20;74.50
64869;DHT22;51349;52.424;10.840;2022-08-21T17:47:46;25.50;74.00
64869;DHT22;51349;52.424;10.840;2022-08-21T17:52:47;25.40;74.70
64869;DHT22;51349;52.424;10.840;2022-08-21T17:57:50;25.20;76.30
64869;DHT22;51349;52.424;10.840;2022-08-21T18:03:06;24.90;76.50
64869;DHT22;51349;52.424;10.840;2022-08-21T18:08:12;24.60;74.60
64869;DHT22;51349;52.424;10.840;2022-08-21T18:13:17;24.20;78.10
64869;DHT22;51349;52.424;10.840;2022-08-21T18:18:20;23.90;76.70
64869;DHT22;51349;52.424;10.840;2022-08-21T18:23:21;23.60;77.40
64869;DHT22;51349;52.424;10.840;2022-08-21T18:28:23;23.20;77.80
64869;DHT22;51349;52.424;10.840;2022-08-21T18:33:24;22.90;78.80
64869;DHT22;51349;52.424;10.840;2022-08-21T18:38:25;22.40;79.40
64869;DHT22;51349;52.424;10.840;2022-08-21T18:43:27;22.20;81.60
64869;DHT22;51349;52.424;10.840;2022-08-21T18:48:28;21.80;82.30
64869;DHT22;51349;52.424;10.840;2022-08-21T18:53:29;21.60;84.00
64869;DHT22;51349;52.424;10.840;2022-08-21T18:58:30;21.30;85.00
64869;DHT22;51349;52.424;10.840;2022-08-21T19:03:31;21.10;86.00
64869;DHT22;51349;52.424;10.840;2022-08-21T19:08:32;20.80;86.10
64869;DHT22;51349;52.424;10.840;2022-08-21T19:13:33;20.60;86.30
64869;DHT22;51349;52.424;10.840;2022-08-21T19:18:39;20.40;87.20
64869;DHT22;51349;52.424;10.840;2022-08-21T19:23:41;20.20;88.00
64869;DHT22;51349;52.424;10.840;2022-08-21T19:28:46;20.00;88.90
64869;DHT22;51349;52.424;10.840;2022-08-21T19:33:54;19.90;90.40
64869;DHT22;51349;52.424;10.840;2022-08-21T19:38:55;19.70;90.40
64869;DHT22;51349;52.424;10.840;2022-08-21T19:43:58;19.60;90.70
64869;DHT22;51349;52.424;10.840;2022-08-21T19:49:00;19.40;91.60
64869;DHT22;51349;52.424;10.840;2022-08-21T19:54:01;19.20;92.10
64869;DHT22;51349;52.424;10.840;2022-08-21T19:59:02;19.00;92.00
64869;DHT22;51349;52.424;10.840;2022-08-21T20:04:04;18.70;92.60
64869;DHT22;51349;52.424;10.840;2022-08-21T20:09:06;18.60;92.50
64869;DHT22;51349;52.424;10.840;2022-08-21T20:14:09;18.60;93.50
64869;DHT22;51349;52.424;10.840;2022-08-21T20:19:11;18.50;92.70
64869;DHT22;51349;52.424;10.840;2022-08-21T20:24:14;18.10;93.20
64869;DHT22;51349;52.424;10.840;2022-08-21T20:29:16;18.20;93.50
64869;DHT22;51349;52.424;10.840;2022-08-21T20:34:17;17.80;94.10
64869;DHT22;51349;52.424;10.840;2022-08-21T20:39:17;17.70;94.50
64869;DHT22;51349;52.424;10.840;2022-08-21T20:44:18;17.70;94.50
64869;DHT22;51349;52.424;10.840;2022-08-21T20:49:26;17.60;94.60
64869;DHT22;51349;52.424;10.840;2022-08-21T20:54:39;17.40;95.20
64869;DHT22;51349;52.424;10.840;2022-08-21T21:10:11;17.20;96.30
64869;DHT22;51349;52.424;10.840;2022-08-21T21:15:23;17.00;97.10
64869;DHT22;51349;52.424;10.840;2022-08-21T21:20:38;17.00;97.40
64869;DHT22;51349;52.424;10.840;2022-08-21T21:26:05;16.70;98.00
64869;DHT22;51349;52.424;10.840;2022-08-21T21:31:07;16.70;98.10
64869;DHT22;51349;52.424;10.840;2022-08-21T22:03:15;16.20;99.90
64869;DHT22;51349;52.424;10.840;2022-08-21T22:24:24;15.70;99.90
64869;DHT22;51349;52.424;10.840;2022-08-21T22:29:51;15.50;99.90
64869;DHT22;51349;52.424;10.840;2022-08-21T22:35:07;15.50;99.90
64869;DHT22;51349;52.424;10.840;2022-08-21T22:40:10;15.40;99.90
64869;DHT22;51349;52.424;10.840;2022-08-21T22:45:19;15.20;99.90
64869;DHT22;51349;52.424;10.840;2022-08-21T22:50:27;15.30;99.90
64869;DHT22;51349;52.424;10.840;2022-08-21T22:55:41;15.20;99.90
64869;DHT22;51349;52.424;10.840;2022-08-21T23:00:53;15.20;99.90
64869;DHT22;51349;52.424;10.840;2022-08-21T23:05:56;15.10;99.90
64869;DHT22;51349;52.424;10.840;2022-08-21T23:11:00;15.00;99.90
64869;DHT22;51349;52.424;10.840;2022-08-21T23:21:46;14.90;99.90
64869;DHT22;51349;52.424;10.840;2022-08-21T23:26:59;14.80;99.90
64869;DHT22;51349;52.424;10.840;2022-08-21T23:53:54;14.30;99.90
64869;DHT22;51349;52.424;10.840;2022-08-21T23:59:13;14.30;99.90
